createdAt,value
2023-04-30T00:00:38.565Z,1.50
2023-04-30T00:03:05.395Z,1.20
2023-04-30T00:05:32.160Z,1.50
2023-04-30T00:07:58.976Z,1.10
2023-04-30T00:10:25.605Z,1.27
2023-04-30T00:12:52.440Z,1.40
2023-04-30T00:15:19.110Z,0.83
2023-04-30T00:17:45.719Z,0.87
2023-04-30T00:20:12.747Z,1.17
2023-04-30T00:22:39.352Z,1.23
2023-04-30T00:25:06.484Z,1.30
2023-04-30T00:27:33.039Z,1.57
2023-04-30T00:29:59.594Z,0.80
2023-04-30T00:32:26.406Z,1.00
2023-04-30T00:34:53.087Z,1.03
2023-04-30T00:37:19.738Z,0.77
2023-04-30T00:39:46.291Z,1.00
2023-04-30T00:42:12.830Z,1.47
2023-04-30T00:44:39.419Z,1.40
2023-04-30T00:47:06.098Z,1.10
2023-04-30T00:49:33.101Z,1.03
2023-04-30T00:51:59.696Z,1.30
2023-04-30T00:54:26.450Z,0.97
2023-04-30T00:56:52.995Z,0.97
2023-04-30T00:59:19.615Z,0.90
2023-04-30T01:01:46.362Z,1.30
2023-04-30T01:04:13.060Z,1.03
2023-04-30T01:06:39.826Z,1.10
2023-04-30T01:09:07.115Z,0.70
2023-04-30T01:12:03.337Z,1.27
2023-04-30T01:14:48.055Z,1.50
2023-04-30T01:17:46.798Z,0.80
2023-04-30T01:20:13.859Z,1.33
2023-04-30T01:23:03.428Z,1.47
2023-04-30T01:26:01.342Z,0.97
2023-04-30T01:28:28.406Z,1.23
2023-04-30T01:30:55.285Z,1.13
2023-04-30T01:33:21.878Z,1.07
2023-04-30T01:36:19.135Z,1.63
2023-04-30T01:39:13.259Z,1.30
2023-04-30T01:41:42.635Z,1.17
2023-04-30T01:44:27.842Z,1.03
2023-04-30T01:47:05.716Z,0.93
2023-04-30T01:50:00.412Z,0.73
2023-04-30T01:52:46.854Z,1.10
2023-04-30T01:55:42.477Z,1.10
2023-04-30T01:58:16.497Z,1.40
2023-04-30T02:00:43.204Z,1.17
2023-04-30T02:03:10.055Z,1.10
2023-04-30T02:05:36.951Z,1.47
2023-04-30T02:08:03.654Z,1.00
2023-04-30T02:10:30.568Z,0.93
2023-04-30T02:12:57.535Z,1.40
2023-04-30T02:15:24.277Z,1.17
2023-04-30T02:17:51.130Z,1.33
2023-04-30T02:20:17.882Z,1.40
2023-04-30T02:22:44.483Z,1.30
2023-04-30T02:25:12.496Z,1.20
2023-04-30T02:27:39.818Z,1.30
2023-04-30T02:30:07.243Z,1.20
2023-04-30T02:32:33.938Z,1.23
2023-04-30T02:35:00.844Z,1.00
2023-04-30T02:37:27.410Z,0.80
2023-04-30T02:39:54.531Z,1.20
2023-04-30T02:42:21.554Z,1.43
2023-04-30T02:44:48.115Z,1.00
2023-04-30T02:47:15.051Z,1.27
2023-04-30T02:49:41.698Z,1.10
2023-04-30T02:52:09.880Z,1.30
2023-04-30T02:54:36.608Z,1.10
2023-04-30T02:57:03.654Z,1.27
2023-04-30T02:59:30.262Z,0.73
2023-04-30T03:01:56.882Z,1.43
2023-04-30T03:04:23.513Z,0.87
2023-04-30T03:06:50.101Z,1.67
2023-04-30T03:09:16.754Z,1.47
2023-04-30T03:11:43.308Z,1.40
2023-04-30T03:14:10.238Z,1.23
2023-04-30T03:16:37.080Z,1.37
2023-04-30T03:19:03.664Z,1.00
2023-04-30T03:21:30.891Z,1.30
2023-04-30T03:23:57.462Z,1.20
2023-04-30T03:26:24.097Z,1.03
2023-04-30T03:28:50.736Z,1.40
2023-04-30T03:31:17.868Z,1.23
2023-04-30T03:33:44.509Z,0.80
2023-04-30T03:36:11.667Z,1.03
2023-04-30T03:38:38.268Z,1.30
2023-04-30T03:41:05.068Z,1.10
2023-04-30T03:43:31.667Z,0.90
2023-04-30T03:45:58.360Z,1.50
2023-04-30T03:48:25.168Z,1.10
2023-04-30T03:50:51.762Z,1.80
2023-04-30T03:53:18.582Z,1.53
2023-04-30T03:55:45.661Z,1.23
2023-04-30T03:58:12.380Z,1.27
2023-04-30T04:00:41.485Z,1.10
2023-04-30T04:03:08.309Z,1.37
2023-04-30T04:05:34.966Z,1.60
2023-04-30T04:08:01.541Z,2.00
2023-04-30T04:10:28.324Z,1.23
2023-04-30T04:12:55.037Z,1.10
2023-04-30T04:15:21.686Z,1.43
2023-04-30T04:17:48.446Z,2.00
2023-04-30T04:20:15.182Z,1.37
2023-04-30T04:22:41.776Z,1.13
2023-04-30T04:25:08.758Z,0.97
2023-04-30T04:27:35.499Z,1.37
2023-04-30T04:30:05.266Z,1.20
2023-04-30T04:32:32.675Z,1.07
2023-04-30T04:34:59.408Z,1.50
2023-04-30T04:37:26.048Z,1.10
2023-04-30T04:39:52.886Z,1.23
2023-04-30T04:42:20.390Z,1.30
2023-04-30T04:44:46.977Z,1.70
2023-04-30T04:47:13.557Z,1.40
2023-04-30T04:49:40.207Z,1.30
2023-04-30T04:52:07.251Z,1.40
2023-04-30T04:54:34.353Z,1.73
2023-04-30T04:57:01.191Z,1.73
2023-04-30T04:59:27.783Z,1.47
2023-04-30T05:01:54.561Z,1.70
2023-04-30T05:04:21.163Z,1.60
2023-04-30T05:06:48.007Z,1.67
2023-04-30T05:09:14.645Z,1.60
2023-04-30T05:11:41.591Z,1.77
2023-04-30T05:14:08.330Z,1.87
2023-04-30T05:16:34.963Z,1.33
2023-04-30T05:19:01.635Z,1.67
2023-04-30T05:21:29.905Z,1.70
2023-04-30T05:23:56.468Z,1.77
2023-04-30T05:26:24.340Z,1.97
2023-04-30T05:28:52.215Z,1.80
2023-04-30T05:31:20.786Z,1.63
2023-04-30T05:33:47.924Z,2.17
2023-04-30T05:36:15.061Z,2.07
2023-04-30T05:38:41.909Z,2.17
2023-04-30T05:41:13.587Z,2.30
2023-04-30T05:43:40.182Z,2.27
2023-04-30T05:46:06.934Z,2.30
2023-04-30T05:48:33.580Z,6.63
2023-04-30T05:51:00.301Z,3.47
2023-04-30T05:53:26.954Z,3.23
2023-04-30T05:55:53.526Z,2.80
2023-04-30T05:58:20.180Z,3.43
2023-04-30T06:00:50.752Z,3.43
2023-04-30T06:03:18.348Z,3.83
2023-04-30T06:05:45.498Z,3.90
2023-04-30T06:08:12.247Z,3.90
2023-04-30T06:10:39.277Z,3.10
2023-04-30T06:13:06.490Z,2.80
2023-04-30T06:15:33.446Z,2.30
2023-04-30T06:18:00.117Z,1.80
2023-04-30T06:20:27.315Z,2.23
2023-04-30T06:22:54.041Z,2.50
2023-04-30T06:25:21.008Z,2.20
2023-04-30T06:27:47.684Z,2.67
2023-04-30T06:30:14.330Z,2.20
2023-04-30T06:32:41.337Z,2.07
2023-04-30T06:35:08.499Z,2.07
2023-04-30T06:37:37.498Z,2.50
2023-04-30T06:40:05.874Z,1.63
2023-04-30T06:42:34.447Z,1.70
2023-04-30T06:45:02.487Z,1.77
2023-04-30T06:47:34.424Z,1.73
2023-04-30T06:50:01.505Z,1.50
2023-04-30T06:52:28.392Z,2.05
2023-04-30T06:54:55.120Z,1.80
2023-04-30T06:57:21.748Z,1.67
2023-04-30T06:59:48.559Z,1.63
2023-04-30T07:02:15.397Z,1.90
2023-04-30T07:04:41.960Z,1.30
2023-04-30T07:07:09.115Z,1.60
2023-04-30T07:09:36.366Z,1.67
2023-04-30T07:12:03.732Z,1.60
2023-04-30T07:14:30.363Z,1.67
2023-04-30T07:16:56.980Z,1.42
2023-04-30T07:19:26.793Z,1.27
2023-04-30T07:21:53.746Z,1.58
2023-04-30T07:24:20.370Z,1.52
2023-04-30T07:26:46.970Z,1.40
2023-04-30T07:29:13.580Z,1.20
2023-04-30T07:31:40.313Z,1.60
2023-04-30T07:34:06.958Z,1.38
2023-04-30T07:36:33.562Z,1.70
2023-04-30T07:39:00.253Z,1.55
2023-04-30T07:41:26.858Z,1.27
2023-04-30T07:43:53.529Z,1.55
2023-04-30T07:46:20.177Z,1.30
2023-04-30T07:48:46.792Z,1.35
2023-04-30T07:51:13.347Z,1.15
2023-04-30T07:53:40.940Z,1.25
2023-04-30T07:56:08.151Z,1.35
2023-04-30T07:58:34.783Z,1.45
2023-04-30T08:01:01.702Z,1.35
2023-04-30T08:03:28.398Z,1.67
2023-04-30T08:05:55.095Z,1.75
2023-04-30T08:08:22.004Z,1.80
2023-04-30T08:10:48.558Z,1.70
2023-04-30T08:13:15.833Z,1.83
2023-04-30T08:15:42.456Z,1.52
2023-04-30T08:18:09.695Z,1.58
2023-04-30T08:20:37.973Z,1.40
2023-04-30T08:23:05.776Z,1.35
2023-04-30T08:25:32.588Z,1.48
2023-04-30T08:27:59.688Z,1.60
2023-04-30T08:30:26.310Z,1.60
2023-04-30T08:32:54.079Z,1.90
2023-04-30T08:35:22.628Z,1.73
2023-04-30T08:37:49.468Z,1.48
2023-04-30T08:40:16.552Z,1.88
2023-04-30T08:42:50.115Z,1.48
2023-04-30T08:45:18.001Z,1.85
2023-04-30T08:47:45.388Z,1.70
2023-04-30T08:50:12.284Z,1.52
2023-04-30T08:52:40.157Z,1.70
2023-04-30T08:55:11.890Z,1.30
2023-04-30T08:57:38.660Z,1.63
2023-04-30T09:00:07.044Z,1.52
2023-04-30T09:02:34.606Z,1.60
2023-04-30T09:05:01.408Z,1.58
2023-04-30T09:07:31.299Z,1.52
2023-04-30T09:10:00.541Z,1.40
2023-04-30T09:12:27.111Z,1.40
2023-04-30T09:15:02.131Z,1.70
2023-04-30T09:17:29.403Z,1.75
2023-04-30T09:20:07.517Z,1.98
2023-04-30T09:22:36.618Z,1.70
2023-04-30T09:25:03.596Z,1.40
2023-04-30T09:27:30.219Z,1.65
2023-04-30T09:29:57.053Z,1.60
2023-04-30T09:32:23.762Z,1.67
2023-04-30T09:34:50.443Z,1.50
2023-04-30T09:37:17.064Z,1.50
2023-04-30T09:39:56.190Z,1.77
2023-04-30T09:42:23.050Z,1.83
2023-04-30T09:44:49.948Z,1.40
2023-04-30T09:47:18.947Z,1.52
2023-04-30T09:49:52.348Z,1.70
2023-04-30T09:52:20.267Z,1.55
2023-04-30T09:54:47.797Z,1.50
2023-04-30T09:57:15.984Z,1.35
2023-04-30T09:59:46.857Z,1.55
2023-04-30T10:02:17.570Z,1.70
2023-04-30T10:04:45.431Z,1.58
2023-04-30T10:07:23.976Z,1.58
2023-04-30T10:09:59.246Z,1.60
2023-04-30T10:12:42.647Z,1.40
2023-04-30T10:15:16.458Z,1.70
2023-04-30T10:17:49.840Z,1.80
2023-04-30T10:20:18.899Z,1.40
2023-04-30T10:22:47.994Z,1.80
2023-04-30T10:25:16.152Z,1.40
2023-04-30T10:27:43.218Z,1.80
2023-04-30T10:30:11.467Z,1.83
2023-04-30T10:32:46.972Z,1.45
2023-04-30T10:35:22.329Z,1.70
2023-04-30T10:38:05.515Z,1.50
2023-04-30T10:40:37.083Z,1.40
2023-04-30T10:43:03.787Z,1.45
2023-04-30T10:45:43.744Z,1.70
2023-04-30T10:48:10.774Z,1.67
2023-04-30T10:50:46.510Z,1.70
2023-04-30T10:53:19.769Z,1.40
2023-04-30T10:55:54.713Z,1.50
2023-04-30T10:58:31.559Z,1.70
2023-04-30T11:01:15.525Z,1.55
2023-04-30T11:04:01.597Z,1.40
2023-04-30T11:06:54.009Z,1.30
2023-04-30T11:09:36.331Z,1.48
2023-04-30T11:12:04.892Z,1.40
2023-04-30T11:14:34.796Z,1.40
2023-04-30T11:17:02.330Z,1.60
2023-04-30T11:19:29.974Z,1.50
2023-04-30T11:22:05.872Z,1.60
2023-04-30T11:24:55.468Z,1.73
2023-04-30T11:27:26.933Z,1.65
2023-04-30T11:29:54.779Z,1.50
2023-04-30T11:32:23.922Z,1.40
2023-04-30T11:34:50.683Z,1.58
2023-04-30T11:37:22.089Z,1.52
2023-04-30T11:39:49.967Z,1.70
2023-04-30T11:42:20.352Z,1.40
2023-04-30T11:44:47.338Z,1.40
2023-04-30T11:47:14.963Z,1.23
2023-04-30T11:49:42.956Z,1.50
2023-04-30T11:52:09.707Z,1.30
2023-04-30T11:54:37.909Z,1.50
2023-04-30T11:57:05.755Z,1.45
2023-04-30T11:59:40.432Z,1.40
2023-04-30T12:02:07.652Z,1.48
2023-04-30T12:04:34.420Z,1.60
2023-04-30T12:07:02.272Z,1.15
2023-04-30T12:09:29.981Z,1.70
2023-04-30T12:11:56.534Z,1.42
2023-04-30T12:14:25.200Z,1.42
2023-04-30T12:16:53.130Z,1.65
2023-04-30T12:19:21.966Z,1.30
2023-04-30T12:21:49.650Z,1.80
2023-04-30T12:24:18.311Z,1.40
2023-04-30T12:26:45.771Z,1.42
2023-04-30T12:29:17.627Z,1.17
2023-04-30T12:31:45.657Z,1.50
2023-04-30T12:34:13.995Z,1.35
2023-04-30T12:36:44.431Z,1.20
2023-04-30T12:39:16.209Z,1.33
2023-04-30T12:41:44.884Z,1.23
2023-04-30T12:44:18.167Z,1.30
2023-04-30T12:46:46.632Z,1.35
2023-04-30T12:49:24.042Z,1.40
2023-04-30T12:51:50.869Z,1.65
2023-04-30T12:54:28.759Z,1.40
2023-04-30T12:57:03.691Z,1.20
2023-04-30T12:59:31.918Z,1.15
2023-04-30T13:02:13.384Z,1.50
2023-04-30T13:04:41.961Z,1.33
2023-04-30T13:07:08.870Z,1.08
2023-04-30T13:09:37.149Z,1.60
2023-04-30T13:12:04.551Z,1.60
2023-04-30T13:14:31.975Z,1.40
2023-04-30T13:16:58.881Z,1.40
2023-04-30T13:19:26.361Z,1.38
2023-04-30T13:21:53.062Z,1.60
2023-04-30T13:24:19.637Z,1.33
2023-04-30T13:26:46.263Z,1.33
2023-04-30T13:29:12.881Z,1.33
2023-04-30T13:31:39.583Z,1.40
2023-04-30T13:34:06.328Z,1.38
2023-04-30T13:36:32.949Z,1.33
2023-04-30T13:39:00.099Z,1.35
2023-04-30T13:41:26.821Z,1.35
2023-04-30T13:43:53.585Z,1.45
2023-04-30T13:46:20.345Z,1.30
2023-04-30T13:48:49.857Z,1.40
2023-04-30T13:51:16.468Z,1.25
2023-04-30T13:53:43.160Z,1.40
2023-04-30T13:56:10.235Z,1.40
2023-04-30T13:58:36.868Z,1.27
2023-04-30T14:01:03.565Z,1.38
2023-04-30T14:03:30.435Z,1.40
2023-04-30T14:05:58.267Z,1.23
2023-04-30T14:08:24.834Z,1.17
2023-04-30T14:10:51.391Z,1.50
2023-04-30T14:13:17.978Z,1.20
2023-04-30T14:15:44.664Z,1.40
2023-04-30T14:18:12.151Z,1.40
2023-04-30T14:20:39.156Z,1.53
2023-04-30T14:23:05.713Z,1.90
2023-04-30T14:25:32.605Z,1.60
2023-04-30T14:27:59.440Z,1.40
2023-04-30T14:30:26.441Z,1.20
2023-04-30T14:32:53.051Z,1.23
2023-04-30T14:35:19.898Z,1.10
2023-04-30T14:37:46.555Z,1.00
2023-04-30T14:40:13.905Z,1.13
2023-04-30T14:42:40.536Z,1.13
2023-04-30T14:45:08.017Z,1.10
2023-04-30T14:47:34.654Z,1.37
2023-04-30T14:50:02.183Z,1.10
2023-04-30T14:52:28.861Z,1.23
2023-04-30T14:54:55.969Z,1.00
2023-04-30T14:57:23.472Z,1.10
2023-04-30T14:59:50.576Z,1.10
2023-04-30T15:02:17.445Z,0.97
2023-04-30T15:04:46.192Z,0.90
2023-04-30T15:07:13.035Z,1.10
2023-04-30T15:09:39.991Z,0.67
2023-04-30T15:12:06.551Z,0.90
2023-04-30T15:14:33.126Z,1.23
2023-04-30T15:16:59.725Z,1.10
2023-04-30T15:19:26.512Z,1.10
2023-04-30T15:21:53.057Z,0.80
2023-04-30T15:24:19.600Z,0.80
2023-04-30T15:26:46.473Z,1.10
2023-04-30T15:29:13.049Z,1.50
2023-04-30T15:31:39.656Z,1.33
2023-04-30T15:34:06.297Z,1.10
2023-04-30T15:36:33.165Z,1.00
2023-04-30T15:38:59.729Z,0.80
2023-04-30T15:41:26.428Z,1.17
2023-04-30T15:43:53.091Z,0.87
2023-04-30T15:46:19.880Z,0.93
2023-04-30T15:48:46.464Z,0.90
2023-04-30T15:51:13.036Z,1.03
2023-04-30T15:53:39.610Z,1.00
2023-04-30T15:56:06.427Z,1.00
2023-04-30T15:58:32.988Z,1.00
2023-04-30T16:00:59.642Z,1.10
2023-04-30T16:03:26.340Z,0.90
2023-04-30T16:05:53.846Z,0.90
2023-04-30T16:08:20.610Z,1.00
2023-04-30T16:10:47.281Z,0.90
2023-04-30T16:13:14.137Z,0.90
2023-04-30T16:15:40.693Z,0.90
2023-04-30T16:18:07.915Z,0.83
2023-04-30T16:20:34.710Z,0.80
2023-04-30T16:23:01.354Z,0.90
2023-04-30T16:25:28.517Z,0.90
2023-04-30T16:27:55.162Z,0.67
2023-04-30T16:30:21.752Z,0.90
2023-04-30T16:32:48.455Z,0.80
2023-04-30T16:35:15.376Z,0.90
2023-04-30T16:37:41.935Z,0.80
2023-04-30T16:40:09.428Z,1.00
2023-04-30T16:42:36.039Z,1.03
2023-04-30T16:45:02.884Z,1.00
2023-04-30T16:47:29.886Z,0.87
2023-04-30T16:49:58.349Z,0.80
2023-04-30T16:52:25.253Z,0.80
2023-04-30T16:54:52.058Z,1.10
2023-04-30T16:57:18.642Z,1.00
2023-04-30T16:59:46.550Z,0.80
2023-04-30T17:02:13.450Z,0.90
2023-04-30T17:04:40.083Z,1.30
2023-04-30T17:07:07.315Z,1.20
2023-04-30T17:09:33.969Z,1.03
2023-04-30T17:12:01.179Z,1.30
2023-04-30T17:14:28.457Z,1.07
2023-04-30T17:16:55.045Z,0.90
2023-04-30T17:19:21.691Z,1.10
2023-04-30T17:21:49.945Z,0.90
2023-04-30T17:24:16.732Z,0.93
2023-04-30T17:26:43.326Z,1.10
2023-04-30T17:29:09.948Z,1.10
2023-04-30T17:31:36.659Z,1.33
2023-04-30T17:34:03.288Z,1.30
2023-04-30T17:36:30.256Z,1.57
2023-04-30T17:38:56.969Z,1.60
2023-04-30T17:41:23.739Z,1.20
2023-04-30T17:43:51.565Z,1.13
2023-04-30T17:46:18.288Z,0.90
2023-04-30T17:48:45.054Z,1.47
2023-04-30T17:51:11.859Z,1.30
2023-04-30T17:53:38.535Z,1.20
2023-04-30T17:56:05.625Z,1.10
2023-04-30T17:58:32.835Z,1.40
2023-04-30T18:01:01.771Z,1.40
2023-04-30T18:03:28.800Z,1.20
2023-04-30T18:05:55.785Z,1.33
2023-04-30T18:08:22.462Z,1.33
2023-04-30T18:10:49.631Z,1.17
2023-04-30T18:13:16.454Z,1.33
2023-04-30T18:15:43.007Z,1.60
2023-04-30T18:18:09.716Z,1.40
2023-04-30T18:20:36.876Z,1.50
2023-04-30T18:23:05.215Z,1.40
2023-04-30T18:25:34.456Z,1.30
2023-04-30T18:28:01.381Z,1.30
2023-04-30T18:30:28.121Z,1.37
2023-04-30T18:32:54.704Z,1.37
2023-04-30T18:35:22.142Z,1.67
2023-04-30T18:37:49.704Z,1.40
2023-04-30T18:40:16.444Z,1.30
2023-04-30T18:42:43.059Z,1.37
2023-04-30T18:45:11.332Z,1.57
2023-04-30T18:47:38.048Z,1.30
2023-04-30T18:50:06.398Z,1.50
2023-04-30T18:52:33.295Z,1.27
2023-04-30T18:54:59.911Z,1.30
2023-04-30T18:57:26.958Z,1.27
2023-04-30T18:59:54.759Z,1.00
2023-04-30T19:02:24.596Z,1.50
2023-04-30T19:04:52.201Z,0.90
2023-04-30T19:07:19.042Z,0.90
2023-04-30T19:09:48.179Z,1.17
2023-04-30T19:12:15.247Z,1.10
2023-04-30T19:14:41.845Z,1.10
2023-04-30T19:17:08.415Z,0.80
2023-04-30T19:19:35.496Z,0.90
2023-04-30T19:22:02.347Z,0.80
2023-04-30T19:24:29.331Z,1.03
2023-04-30T19:26:56.460Z,1.00
2023-04-30T19:29:24.476Z,0.70
2023-04-30T19:31:51.413Z,1.10
2023-04-30T19:34:18.017Z,1.23
2023-04-30T19:36:44.720Z,1.10
2023-04-30T19:39:12.036Z,1.00
2023-04-30T19:41:39.161Z,1.17
2023-04-30T19:44:07.632Z,1.00
2023-04-30T19:46:34.963Z,1.00
2023-04-30T19:49:01.880Z,1.30
2023-04-30T19:51:28.467Z,0.97
2023-04-30T19:53:55.270Z,1.40
2023-04-30T19:56:22.060Z,0.80
2023-04-30T19:58:48.728Z,1.20
2023-04-30T20:01:15.572Z,0.93
2023-04-30T20:03:42.714Z,1.00
2023-04-30T20:06:09.868Z,1.23
2023-04-30T20:08:36.742Z,1.10
2023-04-30T20:11:03.930Z,1.67
2023-04-30T20:13:30.688Z,1.07
2023-04-30T20:15:57.824Z,1.67
2023-04-30T20:18:24.443Z,1.27
2023-04-30T20:20:52.148Z,1.30
2023-04-30T20:23:20.182Z,2.00
2023-04-30T20:25:46.753Z,1.47
2023-04-30T20:28:14.534Z,1.60
2023-04-30T20:30:44.527Z,1.60
2023-04-30T20:33:12.379Z,1.37
2023-04-30T20:35:40.814Z,1.47
2023-04-30T20:38:08.110Z,1.37
2023-04-30T20:40:34.853Z,1.30
2023-04-30T20:43:01.442Z,1.37
2023-04-30T20:45:28.245Z,1.50
2023-04-30T20:47:55.541Z,1.07
2023-04-30T20:50:22.355Z,1.40
2023-04-30T20:52:48.978Z,1.17
2023-04-30T20:55:15.628Z,1.10
2023-04-30T20:57:42.198Z,1.30
2023-04-30T21:00:09.493Z,1.17
2023-04-30T21:02:36.267Z,1.40
2023-04-30T21:05:04.435Z,1.43
2023-04-30T21:07:33.332Z,1.23
2023-04-30T21:10:01.110Z,1.53
2023-04-30T21:12:31.365Z,1.43
2023-04-30T21:14:59.548Z,1.13
2023-04-30T21:17:26.399Z,1.60
2023-04-30T21:19:53.308Z,1.40
2023-04-30T21:22:20.008Z,1.43
2023-04-30T21:24:46.789Z,1.07
2023-04-30T21:27:13.370Z,1.37
2023-04-30T21:29:43.755Z,1.70
2023-04-30T21:32:10.586Z,1.50
2023-04-30T21:34:37.153Z,1.40
2023-04-30T21:37:04.048Z,1.53
2023-04-30T21:39:31.397Z,1.37
2023-04-30T21:41:57.987Z,1.67
2023-04-30T21:44:24.592Z,1.57
2023-04-30T21:46:51.229Z,1.80
2023-04-30T21:49:18.260Z,1.47
2023-04-30T21:51:44.815Z,1.80
2023-04-30T21:54:11.617Z,1.80
2023-04-30T21:56:39.739Z,1.60
2023-04-30T21:59:06.623Z,1.63
2023-04-30T22:01:33.257Z,1.30
2023-04-30T22:03:59.977Z,1.87
2023-04-30T22:06:26.728Z,1.70
2023-04-30T22:08:53.319Z,1.77
2023-04-30T22:11:21.056Z,2.10
2023-04-30T22:13:47.579Z,1.67
2023-04-30T22:16:14.148Z,2.03
2023-04-30T22:18:40.799Z,1.53
2023-04-30T22:21:07.397Z,1.60
2023-04-30T22:23:33.990Z,2.00
2023-04-30T22:26:01.152Z,2.17
2023-04-30T22:28:27.737Z,1.67
2023-04-30T22:31:00.490Z,1.80
2023-04-30T22:33:27.251Z,1.50
2023-04-30T22:35:54.456Z,1.90
2023-04-30T22:38:21.091Z,2.00
2023-04-30T22:40:47.699Z,2.00
2023-04-30T22:43:14.347Z,1.60
2023-04-30T22:45:40.970Z,2.30
2023-04-30T22:48:09.602Z,1.93
2023-04-30T22:50:36.874Z,1.87
2023-04-30T22:53:03.598Z,1.80
2023-04-30T22:55:31.583Z,1.93
2023-04-30T22:57:59.829Z,2.07
2023-04-30T23:00:27.719Z,2.17
2023-04-30T23:02:54.553Z,2.20
2023-04-30T23:05:21.213Z,2.07
2023-04-30T23:07:50.495Z,1.97
2023-04-30T23:10:17.216Z,1.60
2023-04-30T23:12:43.945Z,1.77
2023-04-30T23:15:10.897Z,2.03
2023-04-30T23:17:37.535Z,1.77
2023-04-30T23:20:04.705Z,1.40
2023-04-30T23:22:31.601Z,1.80
2023-04-30T23:24:58.196Z,1.77
2023-04-30T23:27:28.036Z,1.97
2023-04-30T23:29:56.209Z,1.97
2023-04-30T23:32:23.207Z,1.87
2023-04-30T23:34:49.969Z,1.80
2023-04-30T23:37:16.857Z,1.70
2023-04-30T23:39:43.451Z,2.00
2023-04-30T23:42:10.075Z,1.67
2023-04-30T23:44:36.827Z,1.53
2023-04-30T23:47:03.498Z,1.73
2023-04-30T23:49:30.362Z,1.87
2023-04-30T23:51:57.011Z,2.07
2023-04-30T23:54:23.551Z,1.77
2023-04-30T23:56:50.219Z,1.77
2023-04-30T23:59:16.802Z,1.27
